createdAt,value
2023-04-07T00:08:03.431Z,9.05
2023-04-07T00:18:03.678Z,8.84
2023-04-07T00:28:03.919Z,8.81
2023-04-07T00:38:04.130Z,8.73
2023-04-07T00:48:04.407Z,8.71
2023-04-07T00:58:04.606Z,8.66
2023-04-07T01:08:04.821Z,8.66
2023-04-07T01:18:05.028Z,8.56
2023-04-07T01:28:05.210Z,8.41
2023-04-07T01:38:05.419Z,8.34
2023-04-07T01:48:05.682Z,8.30
2023-04-07T01:58:05.880Z,8.26
2023-04-07T02:08:06.094Z,8.07
2023-04-07T02:18:06.328Z,8.11
2023-04-07T02:28:06.373Z,8.11
2023-04-07T02:38:06.579Z,8.10
2023-04-07T02:48:06.798Z,8.10
2023-04-07T02:58:07.003Z,8.07
2023-04-07T03:08:07.220Z,7.98
2023-04-07T03:18:07.602Z,7.80
2023-04-07T03:28:07.594Z,7.75
2023-04-07T03:38:07.802Z,7.72
2023-04-07T03:48:08.061Z,7.92
2023-04-07T03:58:08.243Z,7.85
2023-04-07T04:08:08.442Z,7.80
2023-04-07T04:18:08.658Z,7.90
2023-04-07T04:28:08.854Z,7.86
2023-04-07T04:38:09.057Z,7.79
2023-04-07T04:48:09.376Z,7.69
2023-04-07T04:58:09.383Z,7.64
2023-04-07T05:08:09.580Z,7.63
2023-04-07T05:18:09.801Z,7.69
2023-04-07T05:28:10.025Z,7.75
2023-04-07T05:38:10.208Z,7.77
2023-04-07T05:48:10.519Z,7.85
2023-04-07T05:58:10.549Z,8.04
2023-04-07T06:08:10.757Z,8.26
2023-04-07T06:18:10.970Z,8.45
2023-04-07T06:28:11.183Z,8.55
2023-04-07T06:38:11.376Z,8.53
2023-04-07T06:48:11.579Z,8.55
2023-04-07T06:58:11.801Z,8.56
2023-04-07T07:08:12.007Z,8.63
2023-04-07T07:18:12.243Z,8.73
2023-04-07T07:28:12.448Z,8.81
2023-04-07T07:38:12.649Z,8.89
2023-04-07T07:48:12.850Z,9.10
2023-04-07T07:58:13.055Z,9.47
2023-04-07T08:08:13.284Z,9.66
2023-04-07T08:18:13.545Z,10.79
2023-04-07T08:28:13.726Z,10.79
2023-04-07T08:38:13.929Z,10.66
2023-04-07T08:48:14.142Z,11.04
2023-04-07T08:58:14.352Z,11.35
2023-04-07T09:08:14.612Z,11.46
2023-04-07T09:18:14.832Z,11.52
2023-04-07T09:28:15.025Z,12.02
2023-04-07T09:38:15.227Z,12.35
2023-04-07T09:48:15.422Z,12.47
2023-04-07T09:58:15.645Z,12.92
2023-04-07T10:08:15.866Z,14.27
2023-04-07T10:18:16.090Z,15.43
2023-04-07T10:28:16.289Z,15.57
2023-04-07T10:38:16.726Z,15.47
2023-04-07T10:48:16.573Z,15.20
2023-04-07T10:58:16.796Z,14.68
2023-04-07T11:08:17.001Z,15.07
2023-04-07T11:18:17.393Z,15.10
2023-04-07T11:28:17.408Z,15.46
2023-04-07T11:38:17.615Z,15.44
2023-04-07T11:48:17.814Z,15.57
2023-04-07T11:58:17.996Z,16.38
2023-04-07T12:08:18.222Z,16.43
2023-04-07T12:18:18.469Z,16.21
2023-04-07T12:28:18.666Z,16.52
2023-04-07T12:38:18.884Z,15.36
2023-04-07T12:48:19.093Z,15.20
2023-04-07T12:58:19.316Z,14.83
2023-04-07T13:08:19.515Z,15.10
2023-04-07T13:18:19.711Z,15.49
2023-04-07T13:28:19.903Z,14.69
2023-04-07T13:38:20.110Z,14.92
2023-04-07T13:48:20.327Z,14.62
2023-04-07T13:58:20.539Z,14.52
2023-04-07T14:08:20.743Z,14.33
2023-04-07T14:18:20.953Z,13.49
2023-04-07T14:28:21.160Z,12.50
2023-04-07T14:38:21.411Z,11.73
2023-04-07T14:48:21.602Z,11.91
2023-04-07T14:58:21.788Z,11.95
2023-04-07T15:08:22.003Z,11.57
2023-04-07T15:18:22.226Z,11.62
2023-04-07T15:28:22.424Z,11.52
2023-04-07T15:38:22.643Z,10.53
2023-04-07T15:48:22.881Z,10.26
2023-04-07T15:58:23.054Z,10.12
2023-04-07T16:08:23.267Z,9.90
2023-04-07T16:18:23.461Z,9.91
2023-04-07T16:28:23.676Z,9.90
2023-04-07T16:38:23.898Z,9.96
2023-04-07T16:48:24.117Z,9.79
2023-04-07T16:58:24.295Z,10.07
2023-04-07T17:08:24.556Z,10.04
2023-04-07T17:18:24.759Z,9.99
2023-04-07T17:28:24.976Z,9.94
2023-04-07T17:38:25.223Z,10.11
2023-04-07T17:48:25.403Z,10.11
2023-04-07T17:58:25.612Z,10.51
2023-04-07T18:08:25.797Z,9.65
2023-04-07T18:18:26.145Z,9.38
2023-04-07T18:28:26.154Z,9.31
2023-04-07T18:38:26.350Z,9.29
2023-04-07T18:48:26.601Z,9.02
2023-04-07T18:58:26.764Z,8.98
2023-04-07T19:08:26.979Z,8.89
2023-04-07T19:18:27.222Z,8.63
2023-04-07T19:28:27.373Z,8.63
2023-04-07T19:38:27.602Z,8.48
2023-04-07T19:48:27.789Z,8.52
2023-04-07T19:58:27.997Z,8.44
2023-04-07T20:08:28.190Z,8.44
2023-04-07T20:18:28.405Z,8.41
2023-04-07T20:28:28.605Z,8.44
2023-04-07T20:38:28.815Z,8.41
2023-04-07T20:48:29.021Z,8.34
2023-04-07T20:58:29.227Z,8.22
2023-04-07T21:08:29.418Z,8.11
2023-04-07T21:18:29.615Z,8.00
2023-04-07T21:28:29.824Z,8.00
2023-04-07T21:38:30.024Z,7.75
2023-04-07T21:48:30.237Z,7.58
2023-04-07T21:58:30.426Z,7.61
2023-04-07T22:08:30.634Z,7.50
2023-04-07T22:18:30.829Z,7.50
2023-04-07T22:28:31.038Z,7.49
2023-04-07T22:38:31.250Z,7.42
2023-04-07T22:48:31.466Z,7.42
2023-04-07T22:58:31.673Z,7.43
2023-04-07T23:08:31.880Z,7.63
2023-04-07T23:18:32.076Z,7.52
2023-04-07T23:28:32.305Z,7.34
2023-04-07T23:38:32.496Z,7.49
2023-04-07T23:48:32.691Z,7.35
2023-04-07T23:58:32.879Z,7.34
